Time;durP1;ratioP1;P1;durP2;ratioP2;P2;SDS_P1;SDS_P2;PMS_P1;PMS_P2;Temp;Humidity;BMP_temperature;BMP_pressure;BME280_temperature;BME280_humidity;BME280_pressure;Samples;Min_cycle;Max_cycle;Signal;HPM_P1;HPM_P2
2023/09/23 00:01:44;;;;;;;0.55;0.55;;;;;;;18.55;100.00;94675.84;5077656;28;20226;-75
2023/09/23 00:04:11;;;;;;;0.68;0.55;;;;;;;18.52;100.00;94679.31;5070341;28;20210;-75
2023/09/23 00:06:38;;;;;;;0.50;0.50;;;;;;;18.40;100.00;94679.59;5069523;28;20207;-75
2023/09/23 00:09:16;;;;;;;0.55;0.55;;;;;;;18.26;100.00;94679.44;5070101;28;20286;-74
2023/09/23 00:11:43;;;;;;;0.90;0.85;;;;;;;18.09;100.00;94673.38;5068838;28;20304;-74
2023/09/23 00:14:12;;;;;;;0.65;0.65;;;;;;;18.31;100.00;94668.91;5069859;28;20222;-74
2023/09/23 00:16:39;;;;;;;0.30;0.30;;;;;;;18.34;100.00;94672.84;5069171;28;20256;-74
2023/09/23 00:19:08;;;;;;;0.68;0.68;;;;;;;18.29;100.00;94679.47;5069606;28;20276;-74
2023/09/23 00:21:35;;;;;;;0.40;0.40;;;;;;;18.36;100.00;94676.00;5068947;28;20230;-74
2023/09/23 00:24:02;;;;;;;0.40;0.40;;;;;;;18.51;100.00;94676.94;5069687;28;20207;-74
2023/09/23 00:26:29;;;;;;;0.63;0.60;;;;;;;18.40;100.00;94683.13;5069357;28;20234;-74
2023/09/23 00:28:56;;;;;;;0.70;0.70;;;;;;;18.34;100.00;94678.34;5070003;28;20206;-76
2023/09/23 00:31:24;;;;;;;0.68;0.68;;;;;;;18.31;100.00;94690.84;5069191;28;20210;-76
2023/09/23 00:33:52;;;;;;;1.27;0.88;;;;;;;18.21;100.00;94677.81;5069541;28;20206;-75
2023/09/23 00:36:22;;;;;;;0.28;0.28;;;;;;;18.22;100.00;94682.13;5069474;28;20207;-76
2023/09/23 00:38:48;;;;;;;0.50;0.47;;;;;;;18.26;100.00;94677.47;5060008;28;20302;-74
2023/09/23 00:41:15;;;;;;;0.38;0.38;;;;;;;18.28;100.00;94674.38;5069323;28;20231;-74
2023/09/23 00:43:42;;;;;;;1.45;0.63;;;;;;;18.26;100.00;94677.47;5069862;28;20657;-74
2023/09/23 00:46:10;;;;;;;1.50;1.08;;;;;;;18.31;100.00;94673.63;5069688;28;20215;-75
2023/09/23 00:48:39;;;;;;;0.55;0.40;;;;;;;18.17;100.00;94668.78;5069390;28;20207;-76
2023/09/23 00:51:08;;;;;;;0.68;0.68;;;;;;;18.17;100.00;94667.97;5070263;28;20215;-75
2023/09/23 00:53:39;;;;;;;0.17;0.17;;;;;;;18.18;100.00;94669.56;5069690;28;20214;-76
2023/09/23 00:56:08;;;;;;;1.08;0.80;;;;;;;18.05;100.00;94666.25;5070161;28;20567;-75
2023/09/23 00:58:36;;;;;;;0.75;0.75;;;;;;;17.96;100.00;94668.50;5069690;28;20218;-74
2023/09/23 01:01:05;;;;;;;0.80;0.80;;;;;;;17.97;100.00;94664.59;5072864;28;20264;-74
2023/09/23 01:03:32;;;;;;;0.77;0.50;;;;;;;17.83;100.00;94664.44;5073604;28;20594;-74
2023/09/23 01:06:04;;;;;;;1.23;0.95;;;;;;;17.66;100.00;94655.59;5070156;28;20576;-74
2023/09/23 01:08:31;;;;;;;0.30;0.30;;;;;;;17.74;100.00;94662.78;5069844;28;20213;-74
2023/09/23 01:10:59;;;;;;;0.45;0.45;;;;;;;17.66;100.00;94661.09;5069242;28;20242;-74
2023/09/23 01:13:29;;;;;;;2.30;0.70;;;;;;;17.70;100.00;94661.13;5069800;28;20215;-76
2023/09/23 01:15:56;;;;;;;0.45;0.45;;;;;;;17.69;100.00;94667.78;5069498;28;20302;-74
2023/09/23 01:18:23;;;;;;;0.73;0.73;;;;;;;17.71;100.00;94669.00;5069421;28;20208;-76
2023/09/23 01:20:51;;;;;;;7.32;0.77;;;;;;;17.90;100.00;94654.34;5069825;28;20574;-74
2023/09/23 01:23:20;;;;;;;0.22;0.22;;;;;;;18.04;100.00;94659.22;5070431;28;20215;-74
2023/09/23 01:25:47;;;;;;;0.38;0.38;;;;;;;17.93;100.00;94669.25;5073193;28;20227;-76
2023/09/23 01:28:13;;;;;;;0.30;0.30;;;;;;;17.87;100.00;94666.06;5073269;28;20210;-76
2023/09/23 01:30:41;;;;;;;0.52;0.52;;;;;;;18.03;100.00;94663.13;5072786;28;20207;-75
2023/09/23 01:33:12;;;;;;;0.40;0.40;;;;;;;17.97;100.00;94675.56;5073536;28;20617;-75
2023/09/23 01:35:39;;;;;;;0.30;0.30;;;;;;;17.74;100.00;94668.25;5073349;28;20265;-75
2023/09/23 01:38:06;;;;;;;1.33;0.55;;;;;;;17.61;100.00;94668.81;5073413;28;20223;-75
2023/09/23 01:40:36;;;;;;;2.15;1.05;;;;;;;17.60;100.00;94668.03;5072792;28;20238;-75
2023/09/23 01:43:04;;;;;;;0.63;0.63;;;;;;;17.69;100.00;94654.88;5060237;28;20222;-75
2023/09/23 01:45:31;;;;;;;1.15;1.05;;;;;;;17.74;100.00;94656.50;5072863;28;20215;-75
2023/09/23 01:47:58;;;;;;;3.50;0.57;;;;;;;17.74;100.00;94668.25;5072648;28;20203;-75
2023/09/23 01:50:26;;;;;;;0.75;0.65;;;;;;;17.71;100.00;94682.69;5072518;28;20222;-75
2023/09/23 01:52:54;;;;;;;0.50;0.50;;;;;;;17.53;100.00;94673.41;5072748;28;20203;-75
2023/09/23 01:55:21;;;;;;;0.20;0.20;;;;;;;17.55;100.00;94665.59;5072481;28;20625;-75
2023/09/23 01:57:49;;;;;;;0.20;0.20;;;;;;;17.51;100.00;94663.97;5073111;28;20281;-75
2023/09/23 02:00:18;;;;;;;0.38;0.38;;;;;;;17.43;100.00;94660.34;5072656;28;20218;-75
2023/09/23 02:02:45;;;;;;;0.20;0.20;;;;;;;17.41;100.00;94662.66;5080194;28;20309;-75
2023/09/23 02:05:12;;;;;;;1.45;1.10;;;;;;;17.47;100.00;94663.16;5072574;28;20602;-75
2023/09/23 02:07:39;;;;;;;1.10;1.00;;;;;;;17.43;100.00;94654.88;5072306;28;20210;-74
2023/09/23 02:10:08;;;;;;;1.27;0.85;;;;;;;17.54;100.00;94663.22;5072071;28;20243;-75
2023/09/23 02:12:35;;;;;;;0.45;0.45;;;;;;;17.49;100.00;94669.06;5072109;28;20345;-75
2023/09/23 02:15:06;;;;;;;0.40;0.40;;;;;;;17.31;100.00;94669.59;5071972;28;20218;-74
2023/09/23 02:17:36;;;;;;;0.55;0.55;;;;;;;17.37;100.00;94670.03;5072354;28;20289;-75
2023/09/23 02:20:09;;;;;;;0.68;0.68;;;;;;;17.62;100.00;94670.41;5072480;28;20294;-74
2023/09/23 02:22:37;;;;;;;0.38;0.38;;;;;;;17.33;100.00;94672.75;5072309;28;20612;-74
2023/09/23 02:25:07;;;;;;;2.05;1.02;;;;;;;17.12;100.00;94671.63;5072209;28;20548;-74
2023/09/23 02:27:34;;;;;;;0.60;0.60;;;;;;;17.07;100.00;94667.25;5071960;28;20242;-74
2023/09/23 02:30:03;;;;;;;0.20;0.20;;;;;;;17.09;100.00;94680.56;5072009;28;20286;-75
2023/09/23 02:32:30;;;;;;;0.50;0.50;;;;;;;17.07;100.00;94683.69;5071936;28;20268;-74
2023/09/23 02:34:57;;;;;;;0.35;0.35;;;;;;;16.99;100.00;94682.78;5072126;28;20218;-74
2023/09/23 02:37:26;;;;;;;0.73;0.45;;;;;;;17.02;100.00;94687.53;5071672;28;20667;-75
2023/09/23 02:39:53;;;;;;;0.82;0.40;;;;;;;17.05;100.00;94686.00;5072174;28;20209;-74
2023/09/23 02:42:21;;;;;;;4.80;0.65;;;;;;;17.13;100.00;94692.34;5072200;28;20299;-74
2023/09/23 02:44:48;;;;;;;0.52;0.50;;;;;;;17.01;100.00;94691.41;5071620;28;20215;-74
2023/09/23 02:47:18;;;;;;;1.77;1.05;;;;;;;16.97;100.00;94706.97;5071731;28;20207;-74
2023/09/23 02:49:46;;;;;;;0.50;0.50;;;;;;;16.86;100.00;94706.00;5071541;28;20207;-74
2023/09/23 02:52:13;;;;;;;0.57;0.55;;;;;;;16.70;100.00;94702.59;5071474;28;20211;-74
2023/09/23 02:54:40;;;;;;;0.55;0.50;;;;;;;16.76;100.00;94706.63;5071529;28;20639;-74
2023/09/23 02:57:12;;;;;;;0.60;0.60;;;;;;;16.88;100.00;94692.75;5071531;28;20696;-75
2023/09/23 02:59:41;;;;;;;0.45;0.45;;;;;;;16.92;100.00;94704.56;5071286;28;20209;-75
2023/09/23 03:02:09;;;;;;;0.45;0.45;;;;;;;16.84;100.00;94711.06;5079413;28;20229;-74
2023/09/23 03:04:37;;;;;;;0.50;0.50;;;;;;;16.71;100.00;94709.66;5070774;28;20234;-74
2023/09/23 03:07:06;;;;;;;1.38;1.15;;;;;;;16.75;100.00;94715.97;5071095;28;20211;-74
2023/09/23 03:09:34;;;;;;;0.32;0.32;;;;;;;16.74;100.00;94713.59;5071448;28;20598;-74
2023/09/23 03:12:01;;;;;;;0.57;0.57;;;;;;;16.76;100.00;94709.38;5070798;28;20206;-74
2023/09/23 03:14:36;;;;;;;0.50;0.50;;;;;;;16.81;100.00;94708.28;5070842;28;20218;-74
2023/09/23 03:17:04;;;;;;;0.45;0.45;;;;;;;16.82;100.00;94705.16;5071229;28;20245;-74
2023/09/23 03:19:32;;;;;;;1.88;1.73;;;;;;;16.83;100.00;94704.00;5070960;28;20591;-74
2023/09/23 03:22:01;;;;;;;0.60;0.60;;;;;;;16.79;100.00;94700.44;5070743;28;20262;-74
2023/09/23 03:24:30;;;;;;;0.22;0.22;;;;;;;16.87;100.00;94710.31;5070899;28;20203;-74
2023/09/23 03:26:58;;;;;;;0.30;0.30;;;;;;;16.82;100.00;94716.09;5070941;28;20215;-74
2023/09/23 03:29:28;;;;;;;1.52;0.70;;;;;;;16.87;100.00;94712.28;5070576;28;20209;-76
2023/09/23 03:31:56;;;;;;;0.50;0.50;;;;;;;16.84;100.00;94718.47;5070686;28;20212;-76
2023/09/23 03:34:23;;;;;;;0.63;0.63;;;;;;;16.83;100.00;94712.22;5071080;28;20660;-76
2023/09/23 03:36:51;;;;;;;0.45;0.45;;;;;;;16.78;100.00;94715.25;5071172;28;20683;-74
2023/09/23 03:39:20;;;;;;;0.80;0.60;;;;;;;16.78;100.00;94709.00;5071054;28;20218;-75
2023/09/23 03:41:47;;;;;;;0.75;0.70;;;;;;;16.82;100.00;94707.88;5070525;28;20227;-76
2023/09/23 03:44:15;;;;;;;0.43;0.43;;;;;;;16.86;100.00;94703.28;5070995;28;20261;-74
2023/09/23 03:46:43;;;;;;;0.20;0.20;;;;;;;16.86;100.00;94716.97;5070202;28;20219;-76
2023/09/23 03:49:10;;;;;;;0.70;0.60;;;;;;;16.85;100.00;94709.91;5070751;28;20207;-76
2023/09/23 03:51:37;;;;;;;0.77;0.77;;;;;;;16.81;100.00;94714.50;5070213;28;20302;-75
2023/09/23 03:54:05;;;;;;;0.57;0.43;;;;;;;16.69;100.00;94711.97;5070810;28;20557;-75
2023/09/23 03:56:34;;;;;;;0.98;0.63;;;;;;;16.67;100.00;94704.13;5070341;28;20214;-76
2023/09/23 03:59:01;;;;;;;0.40;0.35;;;;;;;16.70;100.00;94708.88;5070522;28;20332;-75
2023/09/23 04:01:27;;;;;;;16.90;0.90;;;;;;;16.66;100.00;94713.50;5077018;28;20210;-76
2023/09/23 04:03:56;;;;;;;1.48;0.85;;;;;;;16.68;100.00;94715.84;5071827;28;20206;-75
2023/09/23 04:06:23;;;;;;;0.32;0.32;;;;;;;16.71;100.00;94712.38;5070654;28;20244;-76
2023/09/23 04:08:50;;;;;;;0.63;0.60;;;;;;;16.82;100.00;94721.56;5070516;28;20210;-75
2023/09/23 04:11:18;;;;;;;0.30;0.30;;;;;;;16.69;100.00;94720.16;5069888;28;20238;-75
2023/09/23 04:13:46;;;;;;;0.52;0.52;;;;;;;16.62;100.00;94722.75;5056952;28;20573;-75
2023/09/23 04:16:13;;;;;;;0.45;0.45;;;;;;;16.67;100.00;94725.22;5070253;28;20219;-75
2023/09/23 04:18:40;;;;;;;0.47;0.45;;;;;;;16.64;100.00;94721.28;5070095;28;20206;-75
2023/09/23 04:21:08;;;;;;;0.50;0.50;;;;;;;16.80;100.00;94732.13;5069811;28;20199;-75
2023/09/23 04:23:35;;;;;;;0.52;0.52;;;;;;;16.81;100.00;94738.38;5069959;28;20231;-75
2023/09/23 04:26:03;;;;;;;0.85;0.60;;;;;;;16.64;100.00;94737.69;5070470;28;20217;-75
2023/09/23 04:28:30;;;;;;;0.32;0.32;;;;;;;16.76;100.00;94744.94;5070300;28;20203;-75
2023/09/23 04:30:58;;;;;;;0.45;0.45;;;;;;;16.98;100.00;94751.56;5070473;28;20566;-75
2023/09/23 04:33:27;;;;;;;0.70;0.70;;;;;;;17.08;100.00;94761.13;5070049;28;20237;-75
2023/09/23 04:35:56;;;;;;;0.35;0.32;;;;;;;17.27;100.00;94761.03;5070326;28;20263;-75
2023/09/23 04:38:23;;;;;;;0.98;0.95;;;;;;;17.54;100.00;94761.84;5070255;28;20268;-75
2023/09/23 04:40:50;;;;;;;0.98;0.77;;;;;;;17.72;100.00;94755.50;5070061;28;20578;-75
2023/09/23 04:43:17;;;;;;;0.70;0.70;;;;;;;18.11;100.00;94763.47;5069898;28;20226;-75
2023/09/23 04:45:44;;;;;;;0.57;0.57;;;;;;;18.59;100.00;94766.41;5069874;28;20211;-75
2023/09/23 04:48:14;;;;;;;0.40;0.40;;;;;;;19.00;100.00;94770.78;5070426;28;20627;-75
2023/09/23 04:50:41;;;;;;;0.73;0.73;;;;;;;19.31;100.00;94774.19;5069415;28;20214;-75
2023/09/23 04:53:08;;;;;;;0.52;0.52;;;;;;;19.58;100.00;94767.38;5069998;28;20222;-75
2023/09/23 04:55:35;;;;;;;0.60;0.60;;;;;;;20.04;100.00;94764.16;5069743;28;20256;-75
2023/09/23 04:58:02;;;;;;;1.27;1.00;;;;;;;20.57;100.00;94762.47;5070268;28;20211;-75
2023/09/23 05:00:32;;;;;;;0.70;0.70;;;;;;;20.62;100.00;94764.06;5073439;28;20214;-75
2023/09/23 05:02:59;;;;;;;5.60;1.02;;;;;;;21.25;100.00;94762.66;5081956;28;20211;-76
2023/09/23 05:05:27;;;;;;;2.88;1.80;;;;;;;21.54;100.00;94768.97;5073404;28;20218;-75
2023/09/23 05:07:54;;;;;;;2.08;1.85;;;;;;;22.14;100.00;94768.16;5073762;28;20207;-75
2023/09/23 05:10:22;;;;;;;2.85;1.90;;;;;;;22.70;100.00;94767.91;5073132;28;20733;-76
2023/09/23 05:12:48;;;;;;;2.45;1.60;;;;;;;23.03;100.00;94766.59;5073736;28;20206;-76
2023/09/23 05:15:17;;;;;;;1.75;1.17;;;;;;;23.64;100.00;94757.91;5073238;28;20218;-76
2023/09/23 05:17:44;;;;;;;3.75;2.05;;;;;;;24.19;100.00;94759.78;5064411;28;20558;-73
2023/09/23 05:20:25;;;;;;;0.95;0.52;;;;;;;24.70;100.00;94759.59;5073147;28;20293;-76
2023/09/23 05:22:53;;;;;;;3.45;1.67;;;;;;;24.81;100.00;94756.69;5070301;28;20268;-76
2023/09/23 05:25:24;;;;;;;2.38;1.67;;;;;;;25.09;100.00;94750.00;5071845;28;20218;-77
2023/09/23 05:27:53;;;;;;;1.50;1.17;;;;;;;25.37;100.00;94755.13;5068635;28;20202;-75
2023/09/23 05:30:21;;;;;;;3.13;2.10;;;;;;;25.50;64.48;94755.31;5064371;28;20211;-75
2023/09/23 05:32:48;;;;;;;3.40;1.90;;;;;;;25.80;63.09;94760.03;5064128;28;20504;-75
2023/09/23 05:35:15;;;;;;;0.50;0.50;;;;;;;25.05;63.89;94749.25;5073177;28;20211;-73
2023/09/23 05:37:43;;;;;;;1.20;0.95;;;;;;;26.02;62.52;94755.66;5069849;28;20200;-74
2023/09/23 05:40:23;;;;;;;0.68;0.57;;;;;;;26.33;61.53;94747.19;5067940;28;20211;-76
2023/09/23 05:42:50;;;;;;;3.88;1.92;;;;;;;26.03;61.24;94750.88;5066533;28;20207;-74
2023/09/23 05:45:17;;;;;;;5.50;1.95;;;;;;;25.22;63.66;94742.66;5064479;28;20239;-76
2023/09/23 05:47:44;;;;;;;0.80;0.80;;;;;;;26.34;60.52;94754.31;5064386;28;20207;-75
2023/09/23 05:50:15;;;;;;;3.35;2.20;;;;;;;26.42;59.48;94755.75;5064128;28;20241;-75
2023/09/23 05:52:42;;;;;;;2.40;2.10;;;;;;;26.93;58.62;94762.66;5065432;28;20206;-75
2023/09/23 05:55:09;;;;;;;2.85;2.05;;;;;;;27.18;56.22;94762.16;5065661;28;20207;-75
2023/09/23 05:57:38;;;;;;;3.15;2.20;;;;;;;27.04;57.89;94754.91;5072768;28;20229;-75
2023/09/23 06:00:07;;;;;;;3.40;2.10;;;;;;;27.42;55.60;94749.66;5072701;28;20210;-75
2023/09/23 06:02:33;;;;;;;2.88;1.75;;;;;;;26.57;57.57;94762.59;5080614;28;20227;-76
2023/09/23 06:05:01;;;;;;;3.28;2.20;;;;;;;27.68;56.02;94761.00;5072033;28;20203;-76
2023/09/23 06:07:28;;;;;;;2.35;2.10;;;;;;;27.66;55.32;94766.22;5063809;28;20234;-75
2023/09/23 06:09:55;;;;;;;3.00;1.85;;;;;;;27.69;55.94;94762.56;5066748;28;20235;-76
2023/09/23 06:12:24;;;;;;;2.90;2.20;;;;;;;27.45;56.92;94759.94;5069331;28;20756;-76
2023/09/23 06:14:53;;;;;;;2.47;1.83;;;;;;;27.68;55.61;94769.38;5072464;28;20206;-74
2023/09/23 06:17:20;;;;;;;4.20;2.13;;;;;;;28.39;53.70;94770.38;5069889;28;20222;-77
2023/09/23 06:19:47;;;;;;;4.32;2.30;;;;;;;28.63;52.82;94771.69;5072162;28;20280;-75
2023/09/23 06:22:14;;;;;;;3.08;2.47;;;;;;;28.34;53.24;94785.63;5069696;28;20211;-76
2023/09/23 06:24:40;;;;;;;4.78;2.45;;;;;;;28.63;52.78;94780.84;5065536;28;20207;-76
2023/09/23 06:27:07;;;;;;;2.42;2.10;;;;;;;28.47;53.07;94783.66;5071774;28;20226;-77
2023/09/23 06:29:34;;;;;;;3.15;2.28;;;;;;;28.64;51.76;94776.06;5072259;28;20352;-76
2023/09/23 06:32:03;;;;;;;2.85;2.55;;;;;;;28.10;52.79;94787.81;5063858;28;20705;-75
2023/09/23 06:34:30;;;;;;;2.88;2.30;;;;;;;28.14;53.52;94782.16;5068589;28;20203;-76
2023/09/23 06:36:57;;;;;;;4.55;2.53;;;;;;;29.48;50.63;94777.63;5066619;28;20196;-76
2023/09/23 06:39:24;;;;;;;2.85;2.15;;;;;;;30.97;46.43;94778.19;5065466;28;20199;-75
2023/09/23 06:41:51;;;;;;;2.50;1.83;;;;;;;30.84;46.81;94779.47;5062437;28;20286;-75
2023/09/23 06:44:18;;;;;;;2.40;2.10;;;;;;;30.50;47.15;94788.66;5063500;28;20233;-78
2023/09/23 06:46:45;;;;;;;3.85;2.00;;;;;;;29.39;48.79;94788.66;5065194;28;20202;-76
2023/09/23 06:49:13;;;;;;;4.53;2.22;;;;;;;30.07;47.95;94778.91;5058871;28;20210;-75
2023/09/23 06:51:40;;;;;;;3.25;1.90;;;;;;;30.59;47.62;94792.34;5062795;28;20199;-75
2023/09/23 06:54:07;;;;;;;2.33;1.80;;;;;;;30.58;46.77;94795.59;5054505;28;20246;-74
2023/09/23 06:56:36;;;;;;;5.20;2.75;;;;;;;29.92;46.97;94800.19;5061676;28;20286;-75
2023/09/23 06:59:03;;;;;;;3.08;1.90;;;;;;;29.70;47.45;94792.47;5059708;28;20307;-74
2023/09/23 07:01:30;;;;;;;2.67;1.98;;;;;;;28.83;49.34;94794.66;5064463;28;20272;-74
2023/09/23 07:03:57;;;;;;;3.15;2.58;;;;;;;27.45;52.51;94795.31;5064490;28;20231;-74
2023/09/23 07:06:26;;;;;;;2.28;1.77;;;;;;;27.49;52.71;94805.16;5063247;28;20210;-72
2023/09/23 07:08:52;;;;;;;3.72;1.95;;;;;;;28.07;51.56;94810.97;5061330;28;20222;-75
2023/09/23 07:11:20;;;;;;;2.95;1.98;;;;;;;27.71;52.49;94810.25;5051403;28;20234;-76
2023/09/23 07:13:50;;;;;;;2.28;1.60;;;;;;;28.00;52.97;94805.56;5055031;28;20219;-78
2023/09/23 07:16:17;;;;;;;5.13;2.63;;;;;;;27.85;51.46;94810.72;5062425;28;20207;-77
2023/09/23 07:18:45;;;;;;;2.92;1.90;;;;;;;27.65;52.36;94806.41;5062504;28;20557;-75
2023/09/23 07:21:12;;;;;;;3.25;1.98;;;;;;;27.83;51.90;94812.34;5061109;28;20210;-75
2023/09/23 07:23:40;;;;;;;2.25;1.60;;;;;;;27.97;52.00;94812.00;5060362;28;20218;-76
2023/09/23 07:26:07;;;;;;;3.50;1.35;;;;;;;27.31;53.11;94804.78;5060495;28;20674;-76
2023/09/23 07:28:34;;;;;;;2.60;1.60;;;;;;;26.77;55.29;94821.78;5060745;28;20566;-76
2023/09/23 07:31:01;;;;;;;2.80;1.88;;;;;;;26.89;55.04;94821.13;5060165;28;20207;-76
2023/09/23 07:33:28;;;;;;;3.15;2.28;;;;;;;26.67;55.55;94806.06;5062104;28;20195;-76
2023/09/23 07:35:55;;;;;;;2.70;1.77;;;;;;;27.46;53.39;94806.03;5061929;28;20206;-77
2023/09/23 07:38:22;;;;;;;2.28;1.55;;;;;;;27.53;52.84;94805.84;5059708;28;20264;-74
2023/09/23 07:40:54;;;;;;;3.72;1.90;;;;;;;26.96;54.28;94795.19;5064043;28;20210;-74
2023/09/23 07:43:21;;;;;;;2.63;1.90;;;;;;;27.13;53.22;94798.81;5058924;28;20663;-75
2023/09/23 07:45:52;;;;;;;4.07;2.15;;;;;;;27.35;52.93;94804.69;5061206;28;20211;-75
2023/09/23 07:48:19;;;;;;;2.08;1.58;;;;;;;27.31;53.87;94804.78;5067193;28;20245;-76
2023/09/23 07:50:46;;;;;;;2.75;2.40;;;;;;;27.48;52.86;94803.56;5070616;28;20284;-76
2023/09/23 07:53:13;;;;;;;2.50;1.63;;;;;;;27.76;53.27;94791.03;5070395;28;20218;-74
2023/09/23 07:55:41;;;;;;;3.10;1.77;;;;;;;26.78;54.97;94800.31;5069917;28;20207;-74
2023/09/23 07:58:09;;;;;;;4.03;1.75;;;;;;;27.22;53.27;94810.13;5063410;28;20234;-74
2023/09/23 08:00:36;;;;;;;1.95;1.73;;;;;;;27.50;53.24;94803.94;5063065;28;20575;-74
2023/09/23 08:03:03;;;;;;;3.33;1.73;;;;;;;27.17;53.41;94796.75;5062902;28;20246;-74
2023/09/23 08:05:31;;;;;;;2.10;1.38;;;;;;;27.69;52.81;94796.00;5062994;28;20199;-76
2023/09/23 08:07:58;;;;;;;4.18;1.60;;;;;;;27.77;52.16;94792.59;5062289;28;20234;-75
2023/09/23 08:10:24;;;;;;;2.33;1.55;;;;;;;28.02;51.82;94797.53;5070209;28;20611;-75
2023/09/23 08:12:51;;;;;;;2.15;1.50;;;;;;;28.03;51.87;94782.41;5067313;28;20202;-74
2023/09/23 08:15:20;;;;;;;3.13;1.73;;;;;;;27.68;52.28;94778.50;5069411;28;20408;-75
2023/09/23 08:17:46;;;;;;;2.00;1.80;;;;;;;28.03;51.90;94787.19;5067145;28;20534;-75
2023/09/23 08:20:17;;;;;;;2.60;1.88;;;;;;;28.38;51.45;94782.75;5071448;28;20218;-74
2023/09/23 08:22:45;;;;;;;3.50;1.85;;;;;;;28.62;51.08;94778.50;5069386;28;20289;-76
2023/09/23 08:25:13;;;;;;;3.03;1.60;;;;;;;28.54;50.27;94782.72;5055472;28;20748;-74
2023/09/23 08:27:39;;;;;;;3.13;1.73;;;;;;;28.24;50.70;94787.47;5069566;28;20207;-73
2023/09/23 08:30:07;;;;;;;2.00;1.60;;;;;;;27.85;51.72;94788.44;5068967;28;20256;-75
2023/09/23 08:32:36;;;;;;;2.63;1.90;;;;;;;27.98;51.65;94784.94;5070276;28;20218;-77
2023/09/23 08:35:03;;;;;;;3.20;1.60;;;;;;;28.15;52.54;94783.72;5074732;28;20716;-74
2023/09/23 08:37:30;;;;;;;2.80;2.10;;;;;;;28.15;52.99;94778.94;5074276;28;20229;-75
2023/09/23 08:39:57;;;;;;;2.70;1.63;;;;;;;27.97;52.63;94777.81;5074562;28;20203;-74
2023/09/23 08:42:25;;;;;;;3.00;1.60;;;;;;;27.92;52.08;94770.75;5073997;28;20215;-74
2023/09/23 08:44:53;;;;;;;1.73;1.42;;;;;;;27.67;51.54;94770.56;5074135;28;20238;-75
2023/09/23 08:47:20;;;;;;;3.53;1.70;;;;;;;27.53;51.51;94764.09;5074162;28;20598;-75
2023/09/23 08:49:49;;;;;;;3.30;1.80;;;;;;;27.64;51.86;94768.66;5074166;28;20520;-75
2023/09/23 08:52:17;;;;;;;3.22;1.70;;;;;;;27.98;51.86;94774.59;5074024;28;20544;-75
2023/09/23 08:54:47;;;;;;;2.05;1.60;;;;;;;28.31;50.74;94769.75;5074305;28;20556;-74
2023/09/23 08:57:14;;;;;;;2.63;2.05;;;;;;;28.28;50.26;94765.88;5074138;28;20311;-75
2023/09/23 08:59:41;;;;;;;3.47;2.55;;;;;;;28.56;50.43;94763.53;5073701;28;20218;-75
2023/09/23 09:02:08;;;;;;;3.28;2.13;;;;;;;28.34;50.46;94768.09;5082378;28;20211;-75
2023/09/23 09:04:35;;;;;;;2.00;1.70;;;;;;;28.64;50.61;94753.75;5073593;28;20230;-75
2023/09/23 09:07:03;;;;;;;2.22;1.73;;;;;;;28.92;49.89;94758.53;5073490;28;20225;-75
2023/09/23 09:09:30;;;;;;;3.72;2.17;;;;;;;28.81;48.69;94755.28;5073539;28;20211;-77
2023/09/23 09:11:58;;;;;;;2.90;1.80;;;;;;;28.42;49.87;94753.56;5073759;28;21041;-75
2023/09/23 09:14:26;;;;;;;2.00;1.55;;;;;;;28.52;49.19;94752.47;5073902;28;20203;-74
2023/09/23 09:16:54;;;;;;;2.03;1.70;;;;;;;28.47;49.14;94755.78;5073524;28;20257;-74
2023/09/23 09:19:21;;;;;;;1.55;1.40;;;;;;;28.66;48.66;94756.88;5073708;28;20741;-75
2023/09/23 09:21:50;;;;;;;1.90;1.60;;;;;;;28.90;47.43;94741.47;5073373;28;20215;-74
2023/09/23 09:24:18;;;;;;;2.92;1.75;;;;;;;28.97;47.19;94738.44;5073833;28;20670;-74
2023/09/23 09:26:45;;;;;;;3.15;1.70;;;;;;;29.11;46.83;94742.06;5072793;28;20207;-74
2023/09/23 09:29:12;;;;;;;2.53;1.98;;;;;;;29.25;46.81;94736.03;5073765;28;20203;-74
2023/09/23 09:31:40;;;;;;;2.15;1.52;;;;;;;29.38;46.15;94739.66;5059799;28;20242;-74
2023/09/23 09:34:11;;;;;;;2.15;1.50;;;;;;;29.67;46.16;94733.91;5073123;28;20207;-74
2023/09/23 09:36:39;;;;;;;1.50;1.40;;;;;;;29.62;45.59;94726.91;5073148;28;20211;-74
2023/09/23 09:39:08;;;;;;;2.60;1.88;;;;;;;29.90;45.58;94730.00;5073567;28;20644;-74
2023/09/23 09:41:46;;;;;;;1.92;1.40;;;;;;;29.73;44.58;94725.78;5073013;28;20211;-75
2023/09/23 09:44:14;;;;;;;2.90;1.67;;;;;;;29.72;44.49;94718.63;5072517;28;20223;-73
2023/09/23 09:46:42;;;;;;;2.15;1.38;;;;;;;29.96;44.32;94717.81;5072763;28;20268;-73
2023/09/23 09:49:10;;;;;;;4.53;2.28;;;;;;;29.81;44.12;94711.09;5072881;28;20282;-75
2023/09/23 09:51:37;;;;;;;1.48;1.33;;;;;;;29.80;42.73;94709.53;5071775;28;20214;-76
2023/09/23 09:54:05;;;;;;;3.88;1.63;;;;;;;29.65;42.08;94712.06;5071456;28;20195;-73
2023/09/23 09:56:33;;;;;;;2.25;1.70;;;;;;;29.39;43.79;94707.69;5066177;28;20207;-74
2023/09/23 09:59:03;;;;;;;1.88;1.20;;;;;;;29.57;41.56;94705.13;5072602;28;20195;-73
2023/09/23 10:01:30;;;;;;;1.73;1.40;;;;;;;29.41;41.99;94704.47;5072510;28;20285;-76
2023/09/23 10:03:59;;;;;;;3.45;1.63;;;;;;;29.58;41.76;94701.09;5072192;28;20762;-74
2023/09/23 10:06:28;;;;;;;3.00;2.22;;;;;;;29.46;42.93;94687.94;5072357;28;20210;-75
2023/09/23 10:08:57;;;;;;;2.90;1.83;;;;;;;29.73;43.66;94695.81;5059516;28;20252;-73
2023/09/23 10:11:31;;;;;;;3.95;1.63;;;;;;;29.94;42.20;94677.53;5071359;28;20357;-72
2023/09/23 10:13:57;;;;;;;1.50;1.05;;;;;;;30.11;41.47;94684.56;5075484;28;20600;-71
2023/09/23 10:16:29;;;;;;;1.98;1.48;;;;;;;29.99;41.85;94677.00;5071409;28;20219;-71
2023/09/23 10:18:56;;;;;;;2.05;1.20;;;;;;;29.79;40.48;94677.28;5072310;28;20294;-74
2023/09/23 10:21:24;;;;;;;5.97;1.70;;;;;;;29.70;41.25;94672.38;5068836;28;20278;-74
2023/09/23 10:23:52;;;;;;;1.70;1.60;;;;;;;29.81;41.47;94671.22;5069428;28;20230;-71
2023/09/23 10:26:20;;;;;;;2.20;1.27;;;;;;;29.99;40.45;94665.84;5068362;28;20237;-72
2023/09/23 10:28:57;;;;;;;3.90;1.70;;;;;;;30.08;40.04;94663.09;5066738;28;20250;-71
2023/09/23 10:31:27;;;;;;;1.45;1.10;;;;;;;30.22;40.44;94670.22;5065721;28;20283;-72
2023/09/23 10:33:55;;;;;;;3.03;1.67;;;;;;;30.34;39.46;94658.97;5064687;28;20602;-74
2023/09/23 10:36:22;;;;;;;1.85;1.27;;;;;;;30.07;40.35;94664.34;5066159;28;20264;-74
2023/09/23 10:38:49;;;;;;;2.00;1.60;;;;;;;30.20;39.63;94667.91;5062615;28;20195;-75
2023/09/23 10:41:17;;;;;;;2.58;1.55;;;;;;;30.46;39.35;94660.16;5066470;28;20218;-74
2023/09/23 10:43:44;;;;;;;2.42;1.77;;;;;;;30.78;39.53;94653.38;5066024;28;20206;-73
2023/09/23 10:46:10;;;;;;;1.83;1.50;;;;;;;30.90;39.60;94655.31;5065332;28;20585;-75
2023/09/23 10:48:40;;;;;;;0.90;0.85;;;;;;;30.80;39.96;94645.31;5061412;28;20620;-74
2023/09/23 10:51:06;;;;;;;1.60;1.30;;;;;;;30.83;38.68;94643.63;5063172;28;20230;-73
2023/09/23 10:53:33;;;;;;;2.05;1.30;;;;;;;30.67;38.67;94637.00;5062325;28;20204;-75
2023/09/23 10:56:01;;;;;;;2.17;1.20;;;;;;;30.79;38.29;94640.94;5063413;28;20207;-74
2023/09/23 10:58:30;;;;;;;1.50;1.30;;;;;;;31.15;38.47;94637.59;5064206;28;20635;-73
2023/09/23 11:00:57;;;;;;;3.85;1.58;;;;;;;31.33;37.35;94620.06;5066041;28;20215;-73
2023/09/23 11:03:24;;;;;;;2.45;1.30;;;;;;;31.72;37.28;94616.44;5062791;28;20257;-73
2023/09/23 11:05:53;;;;;;;3.08;1.73;;;;;;;31.34;37.12;94616.00;5062113;28;20718;-75
2023/09/23 11:08:19;;;;;;;2.30;1.40;;;;;;;31.69;36.53;94613.78;5065226;28;20211;-74
2023/09/23 11:10:49;;;;;;;1.73;1.50;;;;;;;31.77;35.77;94612.25;5062248;28;20297;-75
2023/09/23 11:13:16;;;;;;;1.77;1.20;;;;;;;31.99;35.86;94600.88;5063169;28;20195;-78
2023/09/23 11:15:45;;;;;;;3.55;1.80;;;;;;;31.91;36.27;94602.44;5064932;28;20196;-78
2023/09/23 11:18:13;;;;;;;1.33;1.15;;;;;;;31.57;35.51;94595.06;5062832;28;20213;-76
2023/09/23 11:20:42;;;;;;;1.23;0.90;;;;;;;31.37;35.45;94595.50;5063503;28;20200;-74
2023/09/23 11:23:11;;;;;;;2.00;1.40;;;;;;;31.56;34.57;94588.69;5066439;28;20213;-76
2023/09/23 11:25:42;;;;;;;2.38;1.42;;;;;;;31.63;35.20;94582.78;5058746;28;20301;-74
2023/09/23 11:28:15;;;;;;;2.58;1.48;;;;;;;31.82;34.24;94578.00;5069636;28;20203;-72
2023/09/23 11:30:43;;;;;;;4.13;2.08;;;;;;;31.46;34.00;94578.69;5064471;28;20229;-73
2023/09/23 11:33:11;;;;;;;2.42;1.10;;;;;;;31.64;34.63;94584.38;5061793;28;20208;-76